Terminal Aerodrome Forecast
Issued by NWS

Home | Current Version | Previous Version | Text Only | Print | Product List | Glossary Off
Versions: 1 2 3 4 5 6 7 8 9 10 11 12 13 14 15 16 17

000
FTUS43 KBIS 230526
TAFDIK
TAF
KDIK 230526Z 2306/2406 12022G32KT P6SM -TSRA BKN050 OVC100CB
     FM230900 13012G20KT P6SM VCTS BKN100CB
     FM231100 20008KT P6SM SHRA VCTS OVC035CB
     FM231400 30015G22KT P6SM SCT050
     FM240300 30008KT P6SM SKC=

USA.gov is the U.S. government's official web portal to all federal, state and local government web resources and services.